sensor_id;sensor_type;location;lat;lon;timestamp;pressure;altitude;pressure_sealevel;temperature;humidity
65760;BME280;52496;51.082;5.066;2023-04-25T00:00:13;101033.28;;;6.07;100.00
65760;BME280;52496;51.082;5.066;2023-04-25T00:02:45;101031.34;;;6.09;100.00
65760;BME280;52496;51.082;5.066;2023-04-25T00:05:16;101024.03;;;6.11;100.00
65760;BME280;52496;51.082;5.066;2023-04-25T00:07:47;101023.06;;;6.12;100.00
65760;BME280;52496;51.082;5.066;2023-04-25T00:10:19;101025.41;;;6.15;100.00
65760;BME280;52496;51.082;5.066;2023-04-25T00:12:50;101020.78;;;6.17;100.00
65760;BME280;52496;51.082;5.066;2023-04-25T00:15:21;101026.06;;;6.17;100.00
65760;BME280;52496;51.082;5.066;2023-04-25T00:17:52;101030.25;;;6.19;100.00
65760;BME280;52496;51.082;5.066;2023-04-25T00:20:23;101033.75;;;6.20;100.00
65760;BME280;52496;51.082;5.066;2023-04-25T00:22:54;101035.44;;;6.21;100.00
65760;BME280;52496;51.082;5.066;2023-04-25T00:25:25;101031.78;;;6.22;100.00
65760;BME280;52496;51.082;5.066;2023-04-25T00:27:56;101036.78;;;6.25;100.00
65760;BME280;52496;51.082;5.066;2023-04-25T00:30:27;101032.31;;;6.26;100.00
65760;BME280;52496;51.082;5.066;2023-04-25T00:32:57;101033.97;;;6.27;100.00
65760;BME280;52496;51.082;5.066;2023-04-25T00:35:27;101042.09;;;6.25;100.00
65760;BME280;52496;51.082;5.066;2023-04-25T00:37:58;101040.44;;;6.24;100.00
65760;BME280;52496;51.082;5.066;2023-04-25T00:40:28;101037.09;;;6.22;100.00
65760;BME280;52496;51.082;5.066;2023-04-25T00:42:59;101042.53;;;6.20;100.00
65760;BME280;52496;51.082;5.066;2023-04-25T00:45:30;101035.44;;;6.21;100.00
65760;BME280;52496;51.082;5.066;2023-04-25T00:48:01;101033.75;;;6.20;100.00
65760;BME280;52496;51.082;5.066;2023-04-25T00:50:35;101037.41;;;6.19;100.00
65760;BME280;52496;51.082;5.066;2023-04-25T00:53:06;101028.44;;;6.20;100.00
65760;BME280;52496;51.082;5.066;2023-04-25T00:55:37;101032.47;;;6.24;100.00
65760;BME280;52496;51.082;5.066;2023-04-25T00:58:08;101030.19;;;6.29;100.00
65760;BME280;52496;51.082;5.066;2023-04-25T01:00:39;101027.91;;;6.34;100.00
65760;BME280;52496;51.082;5.066;2023-04-25T01:03:11;101036.41;;;6.38;100.00
65760;BME280;52496;51.082;5.066;2023-04-25T01:05:42;101024.78;;;6.39;100.00
65760;BME280;52496;51.082;5.066;2023-04-25T01:08:13;101028.97;;;6.41;100.00
65760;BME280;52496;51.082;5.066;2023-04-25T01:10:44;101022.69;;;6.42;100.00
65760;BME280;52496;51.082;5.066;2023-04-25T01:13:14;101019.03;;;6.43;100.00
65760;BME280;52496;51.082;5.066;2023-04-25T01:15:45;101021.38;;;6.47;100.00
65760;BME280;52496;51.082;5.066;2023-04-25T01:18:15;101032.69;;;6.49;100.00
65760;BME280;52496;51.082;5.066;2023-04-25T01:20:47;101025.69;;;6.48;100.00
65760;BME280;52496;51.082;5.066;2023-04-25T01:23:21;101032.69;;;6.49;100.00
65760;BME280;52496;51.082;5.066;2023-04-25T01:25:51;101034.34;;;6.50;100.00
65760;BME280;52496;51.082;5.066;2023-04-25T01:28:23;101041.31;;;6.51;100.00
65760;BME280;52496;51.082;5.066;2023-04-25T01:30:54;101029.03;;;6.50;100.00
65760;BME280;52496;51.082;5.066;2023-04-25T01:33:25;101041.31;;;6.51;100.00
65760;BME280;52496;51.082;5.066;2023-04-25T01:35:55;101048.34;;;6.52;100.00
65760;BME280;52496;51.082;5.066;2023-04-25T01:38:26;101043.03;;;6.52;100.00
65760;BME280;52496;51.082;5.066;2023-04-25T01:40:56;101047.19;;;6.54;100.00
65760;BME280;52496;51.082;5.066;2023-04-25T01:43:27;101043.03;;;6.52;100.00
65760;BME280;52496;51.082;5.066;2023-04-25T01:45:58;101049.00;;;6.54;100.00
65760;BME280;52496;51.082;5.066;2023-04-25T01:48:29;101050.50;;;6.56;100.00
65760;BME280;52496;51.082;5.066;2023-04-25T01:50:59;101048.69;;;6.57;100.00
65760;BME280;52496;51.082;5.066;2023-04-25T01:53:30;101051.34;;;6.57;100.00
65760;BME280;52496;51.082;5.066;2023-04-25T01:56:00;101051.22;;;6.58;100.00
65760;BME280;52496;51.082;5.066;2023-04-25T01:58:31;101054.69;;;6.59;100.00
65760;BME280;52496;51.082;5.066;2023-04-25T02:01:01;101058.03;;;6.61;100.00
65760;BME280;52496;51.082;5.066;2023-04-25T02:03:32;101052.72;;;6.61;100.00
65760;BME280;52496;51.082;5.066;2023-04-25T02:06:03;101063.34;;;6.61;100.00
65760;BME280;52496;51.082;5.066;2023-04-25T02:08:33;101068.66;;;6.61;100.00
65760;BME280;52496;51.082;5.066;2023-04-25T02:11:04;101060.00;;;6.59;100.00
65760;BME280;52496;51.082;5.066;2023-04-25T02:13:34;101061.84;;;6.58;100.00
65760;BME280;52496;51.082;5.066;2023-04-25T02:16:05;101068.16;;;6.57;100.00
65760;BME280;52496;51.082;5.066;2023-04-25T02:18:35;101069.41;;;6.53;100.00
65760;BME280;52496;51.082;5.066;2023-04-25T02:21:07;101068.72;;;6.51;100.00
65760;BME280;52496;51.082;5.066;2023-04-25T02:23:38;101067.22;;;6.49;100.00
65760;BME280;52496;51.082;5.066;2023-04-25T02:26:08;101069.34;;;6.45;100.00
65760;BME280;52496;51.082;5.066;2023-04-25T02:28:38;101073.81;;;6.44;100.00
65760;BME280;52496;51.082;5.066;2023-04-25T02:31:09;101068.81;;;6.41;100.00
65760;BME280;52496;51.082;5.066;2023-04-25T02:33:39;101071.47;;;6.41;100.00
65760;BME280;52496;51.082;5.066;2023-04-25T02:36:10;101082.09;;;6.41;100.00
65760;BME280;52496;51.082;5.066;2023-04-25T02:38:40;101077.78;;;6.40;100.00
65760;BME280;52496;51.082;5.066;2023-04-25T02:41:11;101080.44;;;6.40;100.00
65760;BME280;52496;51.082;5.066;2023-04-25T02:43:41;101084.75;;;6.41;100.00
65760;BME280;52496;51.082;5.066;2023-04-25T02:46:12;101084.75;;;6.41;100.00
65760;BME280;52496;51.082;5.066;2023-04-25T02:48:42;101086.44;;;6.42;100.00
65760;BME280;52496;51.082;5.066;2023-04-25T02:51:13;101082.09;;;6.41;100.00
65760;BME280;52496;51.082;5.066;2023-04-25T02:53:46;101082.09;;;6.41;100.00
65760;BME280;52496;51.082;5.066;2023-04-25T02:56:16;101084.75;;;6.41;100.00
65760;BME280;52496;51.082;5.066;2023-04-25T02:58:47;101071.63;;;6.40;100.00
65760;BME280;52496;51.082;5.066;2023-04-25T03:01:18;101077.78;;;6.40;100.00
65760;BME280;52496;51.082;5.066;2023-04-25T03:03:49;101082.09;;;6.41;100.00
65760;BME280;52496;51.082;5.066;2023-04-25T03:06:19;101082.78;;;6.43;100.00
65760;BME280;52496;51.082;5.066;2023-04-25T03:08:50;101075.50;;;6.46;100.00
65760;BME280;52496;51.082;5.066;2023-04-25T03:11:20;101078.00;;;6.47;100.00
65760;BME280;52496;51.082;5.066;2023-04-25T03:13:51;101080.53;;;6.49;100.00
65760;BME280;52496;51.082;5.066;2023-04-25T03:16:22;101078.81;;;6.48;100.00
65760;BME280;52496;51.082;5.066;2023-04-25T03:18:52;101081.34;;;6.49;100.00
65760;BME280;52496;51.082;5.066;2023-04-25T03:21:23;101080.53;;;6.49;100.00
65760;BME280;52496;51.082;5.066;2023-04-25T03:23:53;101090.84;;;6.52;100.00
65760;BME280;52496;51.082;5.066;2023-04-25T03:26:24;101097.94;;;6.51;100.00
65760;BME280;52496;51.082;5.066;2023-04-25T03:28:54;101091.97;;;6.49;100.00
65760;BME280;52496;51.082;5.066;2023-04-25T03:31:24;101095.91;;;6.45;100.00
65760;BME280;52496;51.082;5.066;2023-04-25T03:33:55;101094.53;;;6.41;100.00
65760;BME280;52496;51.082;5.066;2023-04-25T03:36:25;101097.38;;;6.39;100.00
65760;BME280;52496;51.082;5.066;2023-04-25T03:38:56;101094.00;;;6.37;100.00
65760;BME280;52496;51.082;5.066;2023-04-25T03:41:26;101089.84;;;6.35;100.00
65760;BME280;52496;51.082;5.066;2023-04-25T03:43:57;101098.94;;;6.32;100.00
65760;BME280;52496;51.082;5.066;2023-04-25T03:46:28;101092.97;;;6.30;100.00
65760;BME280;52496;51.082;5.066;2023-04-25T03:48:58;101092.25;;;6.28;100.00
65760;BME280;52496;51.082;5.066;2023-04-25T03:51:32;101092.41;;;6.27;100.00
65760;BME280;52496;51.082;5.066;2023-04-25T03:54:02;101096.75;;;6.28;100.00
65760;BME280;52496;51.082;5.066;2023-04-25T03:56:33;101098.56;;;6.27;100.00
65760;BME280;52496;51.082;5.066;2023-04-25T03:59:03;101095.22;;;6.25;100.00
65760;BME280;52496;51.082;5.066;2023-04-25T04:01:34;101097.19;;;6.23;100.00
65760;BME280;52496;51.082;5.066;2023-04-25T04:04:04;101096.50;;;6.21;100.00
65760;BME280;52496;51.082;5.066;2023-04-25T04:06:34;101099.47;;;6.18;100.00
65760;BME280;52496;51.082;5.066;2023-04-25T04:09:06;101103.38;;;6.14;100.00
65760;BME280;52496;51.082;5.066;2023-04-25T04:11:40;101105.38;;;6.12;100.00
65760;BME280;52496;51.082;5.066;2023-04-25T04:14:11;101108.16;;;6.10;100.00
65760;BME280;52496;51.082;5.066;2023-04-25T04:16:44;101109.00;;;6.11;100.00
65760;BME280;52496;51.082;5.066;2023-04-25T04:19:15;101107.34;;;6.10;100.00
65760;BME280;52496;51.082;5.066;2023-04-25T04:21:46;101111.81;;;6.09;100.00
65760;BME280;52496;51.082;5.066;2023-04-25T04:24:16;101113.63;;;6.09;100.00
65760;BME280;52496;51.082;5.066;2023-04-25T04:26:47;101118.25;;;6.07;100.00
65760;BME280;52496;51.082;5.066;2023-04-25T04:29:17;101112.25;;;6.05;100.00
65760;BME280;52496;51.082;5.066;2023-04-25T04:31:51;101116.72;;;6.04;100.00
65760;BME280;52496;51.082;5.066;2023-04-25T04:34:23;101115.72;;;6.05;100.00
65760;BME280;52496;51.082;5.066;2023-04-25T04:36:54;101127.22;;;6.06;100.00
65760;BME280;52496;51.082;5.066;2023-04-25T04:39:25;101127.22;;;6.06;100.00
65760;BME280;52496;51.082;5.066;2023-04-25T04:41:56;101128.88;;;6.07;100.00
65760;BME280;52496;51.082;5.066;2023-04-25T04:44:27;101132.53;;;6.06;100.00
65760;BME280;52496;51.082;5.066;2023-04-25T04:46:59;101125.38;;;6.06;100.00
65760;BME280;52496;51.082;5.066;2023-04-25T04:49:29;101130.53;;;6.08;100.00
65760;BME280;52496;51.082;5.066;2023-04-25T04:52:00;101137.53;;;6.09;100.00
65760;BME280;52496;51.082;5.066;2023-04-25T04:54:30;101139.03;;;6.11;100.00
65760;BME280;52496;51.082;5.066;2023-04-25T04:57:01;101138.91;;;6.13;100.00
65760;BME280;52496;51.082;5.066;2023-04-25T04:59:31;101145.03;;;6.13;100.00
65760;BME280;52496;51.082;5.066;2023-04-25T05:02:02;101145.88;;;6.14;100.00
65760;BME280;52496;51.082;5.066;2023-04-25T05:04:32;101154.38;;;6.17;100.00
65760;BME280;52496;51.082;5.066;2023-04-25T05:07:03;101157.88;;;6.18;100.00
65760;BME280;52496;51.082;5.066;2023-04-25T05:09:33;101165.69;;;6.19;100.00
65760;BME280;52496;51.082;5.066;2023-04-25T05:12:04;101164.56;;;6.22;100.00
65760;BME280;52496;51.082;5.066;2023-04-25T05:14:34;101168.59;;;6.26;100.00
65760;BME280;52496;51.082;5.066;2023-04-25T05:17:05;101176.25;;;6.29;100.00
65760;BME280;52496;51.082;5.066;2023-04-25T05:19:39;101175.97;;;6.32;100.00
65760;BME280;52496;51.082;5.066;2023-04-25T05:22:09;101188.94;;;6.35;100.00
65760;BME280;52496;51.082;5.066;2023-04-25T05:24:40;101188.66;;;6.38;100.00
65760;BME280;52496;51.082;5.066;2023-04-25T05:27:11;101189.19;;;6.42;100.00
65760;BME280;52496;51.082;5.066;2023-04-25T05:29:41;101194.19;;;6.45;100.00
65760;BME280;52496;51.082;5.066;2023-04-25T05:32:12;101207.06;;;6.50;100.00
65760;BME280;52496;51.082;5.066;2023-04-25T05:34:42;101195.13;;;6.54;100.00
65760;BME280;52496;51.082;5.066;2023-04-25T05:37:14;101195.81;;;6.56;100.00
65760;BME280;52496;51.082;5.066;2023-04-25T05:39:44;101202.66;;;6.58;100.00
65760;BME280;52496;51.082;5.066;2023-04-25T05:42:15;101196.75;;;6.64;100.00
65760;BME280;52496;51.082;5.066;2023-04-25T05:44:45;101200.63;;;6.70;100.00
65760;BME280;52496;51.082;5.066;2023-04-25T05:47:16;101206.19;;;6.77;100.00
65760;BME280;52496;51.082;5.066;2023-04-25T05:49:46;101201.41;;;6.80;100.00
65760;BME280;52496;51.082;5.066;2023-04-25T05:52:17;101214.78;;;6.88;100.00
65760;BME280;52496;51.082;5.066;2023-04-25T05:54:47;101208.03;;;6.94;100.00
65760;BME280;52496;51.082;5.066;2023-04-25T05:57:22;101214.53;;;7.00;100.00
65760;BME280;52496;51.082;5.066;2023-04-25T05:59:53;101219.53;;;7.03;100.00
65760;BME280;52496;51.082;5.066;2023-04-25T06:02:24;101217.28;;;7.08;100.00
65760;BME280;52496;51.082;5.066;2023-04-25T06:04:55;101224.66;;;7.14;100.00
65760;BME280;52496;51.082;5.066;2023-04-25T06:07:25;101228.81;;;7.17;100.00
65760;BME280;52496;51.082;5.066;2023-04-25T06:09:56;101227.09;;;7.25;100.00
65760;BME280;52496;51.082;5.066;2023-04-25T06:12:27;101228.81;;;7.34;100.00
65760;BME280;52496;51.082;5.066;2023-04-25T06:14:58;101231.88;;;7.40;100.00
65760;BME280;52496;51.082;5.066;2023-04-25T06:17:28;101232.22;;;7.45;100.00
65760;BME280;52496;51.082;5.066;2023-04-25T06:19:59;101234.44;;;7.49;100.00
65760;BME280;52496;51.082;5.066;2023-04-25T06:22:29;101230.97;;;7.57;100.00
65760;BME280;52496;51.082;5.066;2023-04-25T06:24:59;101235.69;;;7.63;100.00
65760;BME280;52496;51.082;5.066;2023-04-25T06:27:31;101236.56;;;7.72;100.00
65760;BME280;52496;51.082;5.066;2023-04-25T06:30:01;101239.13;;;7.81;100.00
65760;BME280;52496;51.082;5.066;2023-04-25T06:32:32;101236.91;;;7.95;100.00
65760;BME280;52496;51.082;5.066;2023-04-25T06:35:02;101245.28;;;8.08;100.00
65760;BME280;52496;51.082;5.066;2023-04-25T06:37:33;101240.47;;;8.12;100.00
65760;BME280;52496;51.082;5.066;2023-04-25T06:40:05;101257.97;;;8.14;100.00
65760;BME280;52496;51.082;5.066;2023-04-25T06:42:35;101263.69;;;8.19;100.00
65760;BME280;52496;51.082;5.066;2023-04-25T06:45:06;101259.69;;;8.23;100.00
65760;BME280;52496;51.082;5.066;2023-04-25T06:47:37;101263.22;;;8.32;100.00
65760;BME280;52496;51.082;5.066;2023-04-25T06:50:08;101274.00;;;8.48;100.00
65760;BME280;52496;51.082;5.066;2023-04-25T06:52:38;101270.53;;;8.56;100.00
65760;BME280;52496;51.082;5.066;2023-04-25T06:55:10;101276.56;;;8.66;100.00
65760;BME280;52496;51.082;5.066;2023-04-25T06:57:40;101272.59;;;8.70;100.00
65760;BME280;52496;51.082;5.066;2023-04-25T07:00:11;101278.94;;;8.78;100.00
65760;BME280;52496;51.082;5.066;2023-04-25T07:02:42;101280.28;;;8.82;100.00
65760;BME280;52496;51.082;5.066;2023-04-25T07:05:13;101282.63;;;8.85;100.00
65760;BME280;52496;51.082;5.066;2023-04-25T07:07:44;101283.97;;;8.81;100.00
65760;BME280;52496;51.082;5.066;2023-04-25T07:10:14;101293.63;;;8.82;100.00
65760;BME280;52496;51.082;5.066;2023-04-25T07:12:45;101297.66;;;8.86;100.00
65760;BME280;52496;51.082;5.066;2023-04-25T07:15:15;101305.31;;;8.97;100.00
65760;BME280;52496;51.082;5.066;2023-04-25T07:17:46;101304.69;;;9.03;100.00
65760;BME280;52496;51.082;5.066;2023-04-25T07:20:16;101301.34;;;9.01;100.00
65760;BME280;52496;51.082;5.066;2023-04-25T07:22:47;101309.69;;;9.06;100.00
65760;BME280;52496;51.082;5.066;2023-04-25T07:25:19;101307.41;;;9.19;100.00
65760;BME280;52496;51.082;5.066;2023-04-25T07:27:50;101307.75;;;9.33;100.00
65760;BME280;52496;51.082;5.066;2023-04-25T07:30:21;101308.41;;;9.43;100.00
65760;BME280;52496;51.082;5.066;2023-04-25T07:32:51;101313.75;;;9.51;100.00
65760;BME280;52496;51.082;5.066;2023-04-25T07:35:22;101313.09;;;9.57;100.00
65760;BME280;52496;51.082;5.066;2023-04-25T07:37:52;101309.78;;;9.63;98.33
65760;BME280;52496;51.082;5.066;2023-04-25T07:40:23;101322.47;;;9.53;98.23
65760;BME280;52496;51.082;5.066;2023-04-25T07:42:53;101318.44;;;9.41;99.33
65760;BME280;52496;51.082;5.066;2023-04-25T07:45:24;101326.75;;;9.30;98.80
65760;BME280;52496;51.082;5.066;2023-04-25T07:47:54;101332.72;;;9.15;97.99
65760;BME280;52496;51.082;5.066;2023-04-25T07:50:25;101344.00;;;8.93;93.63
65760;BME280;52496;51.082;5.066;2023-04-25T07:52:55;101348.91;;;8.71;92.09
65760;BME280;52496;51.082;5.066;2023-04-25T07:55:26;101354.78;;;8.49;92.40
65760;BME280;52496;51.082;5.066;2023-04-25T07:57:56;101347.94;;;8.20;93.80
65760;BME280;52496;51.082;5.066;2023-04-25T08:00:28;101352.53;;;8.10;95.11
65760;BME280;52496;51.082;5.066;2023-04-25T08:02:59;101350.38;;;8.14;97.98
65760;BME280;52496;51.082;5.066;2023-04-25T08:05:29;101346.63;;;8.24;99.54
65760;BME280;52496;51.082;5.066;2023-04-25T08:08:00;101354.22;;;8.37;97.08
65760;BME280;52496;51.082;5.066;2023-04-25T08:10:31;101359.97;;;8.50;96.39
65760;BME280;52496;51.082;5.066;2023-04-25T08:13:01;101359.91;;;8.68;99.02
65760;BME280;52496;51.082;5.066;2023-04-25T08:15:32;101359.66;;;8.88;93.14
65760;BME280;52496;51.082;5.066;2023-04-25T08:18:03;101362.41;;;9.04;93.14
65760;BME280;52496;51.082;5.066;2023-04-25T08:20:33;101371.44;;;9.28;93.49
65760;BME280;52496;51.082;5.066;2023-04-25T08:23:04;101371.53;;;9.77;95.30
65760;BME280;52496;51.082;5.066;2023-04-25T08:25:34;101382.56;;;10.23;92.96
65760;BME280;52496;51.082;5.066;2023-04-25T08:28:05;101386.00;;;10.72;88.94
65760;BME280;52496;51.082;5.066;2023-04-25T08:30:36;101386.47;;;11.15;89.24
65760;BME280;52496;51.082;5.066;2023-04-25T08:33:06;101389.41;;;11.29;84.29
65760;BME280;52496;51.082;5.066;2023-04-25T08:35:37;101396.84;;;11.49;86.58
65760;BME280;52496;51.082;5.066;2023-04-25T08:38:07;101398.88;;;11.47;80.61
65760;BME280;52496;51.082;5.066;2023-04-25T08:40:39;101401.19;;;11.51;85.76
65760;BME280;52496;51.082;5.066;2023-04-25T08:43:13;101409.81;;;11.61;83.71
65760;BME280;52496;51.082;5.066;2023-04-25T08:45:45;101404.50;;;11.53;81.58
65760;BME280;52496;51.082;5.066;2023-04-25T08:48:16;101407.91;;;11.46;79.15
65760;BME280;52496;51.082;5.066;2023-04-25T08:50:55;101414.25;;;11.54;81.74
65760;BME280;52496;51.082;5.066;2023-04-25T08:53:41;101412.31;;;11.39;79.25
65760;BME280;52496;51.082;5.066;2023-04-25T08:56:16;101419.38;;;11.32;78.79
65760;BME280;52496;51.082;5.066;2023-04-25T08:59:01;101423.19;;;11.69;78.05
65760;BME280;52496;51.082;5.066;2023-04-25T09:01:32;101422.81;;;11.72;74.57
65760;BME280;52496;51.082;5.066;2023-04-25T09:04:03;101424.47;;;11.73;73.78
65760;BME280;52496;51.082;5.066;2023-04-25T09:06:34;101434.50;;;11.79;71.63
65760;BME280;52496;51.082;5.066;2023-04-25T09:09:06;101432.38;;;11.98;73.89
65760;BME280;52496;51.082;5.066;2023-04-25T09:11:37;101437.00;;;12.27;70.81
65760;BME280;52496;51.082;5.066;2023-04-25T09:14:22;101439.97;;;12.84;72.04
65760;BME280;52496;51.082;5.066;2023-04-25T09:19:35;101437.28;;;12.84;65.58
65760;BME280;52496;51.082;5.066;2023-04-25T09:22:06;101446.44;;;12.75;68.97
65760;BME280;52496;51.082;5.066;2023-04-25T09:24:44;101452.06;;;12.66;64.98
65760;BME280;52496;51.082;5.066;2023-04-25T09:27:20;101439.63;;;12.50;68.32
65760;BME280;52496;51.082;5.066;2023-04-25T09:29:59;101450.44;;;12.42;67.26
65760;BME280;52496;51.082;5.066;2023-04-25T09:32:30;101459.41;;;12.34;69.15
65760;BME280;52496;51.082;5.066;2023-04-25T09:35:01;101456.66;;;12.19;67.91
65760;BME280;52496;51.082;5.066;2023-04-25T09:37:31;101459.81;;;12.23;69.33
65760;BME280;52496;51.082;5.066;2023-04-25T09:40:05;101464.06;;;12.17;68.82
65760;BME280;52496;51.082;5.066;2023-04-25T09:42:41;101479.69;;;11.90;71.06
65760;BME280;52496;51.082;5.066;2023-04-25T09:45:14;101496.97;;;11.40;75.51
65760;BME280;52496;51.082;5.066;2023-04-25T09:47:45;101499.47;;;10.94;76.61
65760;BME280;52496;51.082;5.066;2023-04-25T09:50:17;101504.53;;;10.65;80.29
65760;BME280;52496;51.082;5.066;2023-04-25T09:53:03;101502.53;;;10.42;80.75
65760;BME280;52496;51.082;5.066;2023-04-25T09:55:34;101501.72;;;10.42;82.85
65760;BME280;52496;51.082;5.066;2023-04-25T09:58:05;101494.84;;;10.55;79.37
65760;BME280;52496;51.082;5.066;2023-04-25T10:00:40;101499.31;;;10.79;78.01
65760;BME280;52496;51.082;5.066;2023-04-25T10:03:12;101497.31;;;10.90;76.53
65760;BME280;52496;51.082;5.066;2023-04-25T10:05:43;101495.44;;;10.98;75.61
65760;BME280;52496;51.082;5.066;2023-04-25T10:08:15;101503.28;;;11.08;75.39
65760;BME280;52496;51.082;5.066;2023-04-25T10:10:47;101509.81;;;11.14;76.02
65760;BME280;52496;51.082;5.066;2023-04-25T10:13:19;101513.81;;;11.10;73.30
65760;BME280;52496;51.082;5.066;2023-04-25T10:15:50;101500.75;;;11.15;72.48
65760;BME280;52496;51.082;5.066;2023-04-25T10:18:22;101515.16;;;11.14;71.00
65760;BME280;52496;51.082;5.066;2023-04-25T10:20:54;101515.13;;;11.22;70.89
65760;BME280;52496;51.082;5.066;2023-04-25T10:23:26;101515.78;;;11.24;70.38
65760;BME280;52496;51.082;5.066;2023-04-25T10:25:58;101519.78;;;11.28;68.05
65760;BME280;52496;51.082;5.066;2023-04-25T10:34:43;101519.88;;;11.82;67.60
65760;BME280;52496;51.082;5.066;2023-04-25T10:37:18;101516.63;;;12.03;66.40
65760;BME280;52496;51.082;5.066;2023-04-25T10:39:49;101512.09;;;12.04;66.15
65760;BME280;52496;51.082;5.066;2023-04-25T10:42:20;101518.34;;;12.19;65.86
65760;BME280;52496;51.082;5.066;2023-04-25T10:45:05;101505.31;;;12.16;66.73
65760;BME280;52496;51.082;5.066;2023-04-25T10:47:36;101512.50;;;12.38;66.76
65760;BME280;52496;51.082;5.066;2023-04-25T10:50:10;101506.97;;;12.93;67.11
65760;BME280;52496;51.082;5.066;2023-04-25T10:52:41;101504.78;;;13.41;64.46
65760;BME280;52496;51.082;5.066;2023-04-25T10:55:11;101506.78;;;13.68;63.04
65760;BME280;52496;51.082;5.066;2023-04-25T10:57:43;101508.91;;;14.09;63.67
65760;BME280;52496;51.082;5.066;2023-04-25T11:00:17;101503.53;;;14.52;61.56
65760;BME280;52496;51.082;5.066;2023-04-25T11:02:52;101511.22;;;14.83;58.93
65760;BME280;52496;51.082;5.066;2023-04-25T11:05:31;101506.81;;;15.04;58.71
65760;BME280;52496;51.082;5.066;2023-04-25T11:08:02;101507.75;;;15.24;57.06
65760;BME280;52496;51.082;5.066;2023-04-25T11:10:41;101512.16;;;15.32;55.27
65760;BME280;52496;51.082;5.066;2023-04-25T11:13:11;101507.59;;;15.32;53.25
65760;BME280;52496;51.082;5.066;2023-04-25T11:15:42;101501.06;;;15.13;53.35
65760;BME280;52496;51.082;5.066;2023-04-25T11:18:15;101503.44;;;14.95;52.73
65760;BME280;52496;51.082;5.066;2023-04-25T11:20:48;101504.06;;;14.97;54.62
65760;BME280;52496;51.082;5.066;2023-04-25T11:23:18;101500.56;;;15.03;54.72
65760;BME280;52496;51.082;5.066;2023-04-25T11:25:49;101501.03;;;14.79;53.80
65760;BME280;52496;51.082;5.066;2023-04-25T11:28:22;101508.53;;;14.55;53.91
65760;BME280;52496;51.082;5.066;2023-04-25T11:30:53;101509.53;;;14.33;54.06
65760;BME280;52496;51.082;5.066;2023-04-25T11:33:24;101511.31;;;13.83;54.00
65760;BME280;52496;51.082;5.066;2023-04-25T11:35:55;101511.13;;;13.33;57.83
65760;BME280;52496;51.082;5.066;2023-04-25T11:38:26;101522.69;;;12.81;61.18
65760;BME280;52496;51.082;5.066;2023-04-25T11:40:57;101526.50;;;12.03;66.75
65760;BME280;52496;51.082;5.066;2023-04-25T11:43:28;101522.06;;;11.47;72.69
65760;BME280;52496;51.082;5.066;2023-04-25T11:45:58;101528.56;;;11.06;78.04
65760;BME280;52496;51.082;5.066;2023-04-25T11:48:37;101514.19;;;10.90;80.75
65760;BME280;52496;51.082;5.066;2023-04-25T11:51:08;101517.91;;;10.81;81.13
65760;BME280;52496;51.082;5.066;2023-04-25T11:53:41;101516.06;;;10.90;88.19
65760;BME280;52496;51.082;5.066;2023-04-25T11:56:14;101525.88;;;11.06;82.01
65760;BME280;52496;51.082;5.066;2023-04-25T11:58:59;101531.31;;;11.29;76.40
65760;BME280;52496;51.082;5.066;2023-04-25T12:01:35;101528.63;;;11.76;78.52
65760;BME280;52496;51.082;5.066;2023-04-25T12:04:14;101517.63;;;12.48;82.93
65760;BME280;52496;51.082;5.066;2023-04-25T12:06:46;101516.91;;;13.07;74.74
65760;BME280;52496;51.082;5.066;2023-04-25T12:09:20;101512.16;;;13.68;76.14
65760;BME280;52496;51.082;5.066;2023-04-25T12:11:55;101522.97;;;14.11;61.53
65760;BME280;52496;51.082;5.066;2023-04-25T12:14:31;101522.09;;;14.47;59.67
65760;BME280;52496;51.082;5.066;2023-04-25T12:17:03;101528.50;;;14.67;55.96
65760;BME280;52496;51.082;5.066;2023-04-25T12:19:36;101519.50;;;14.82;58.79
65760;BME280;52496;51.082;5.066;2023-04-25T12:22:21;101525.13;;;14.59;58.65
65760;BME280;52496;51.082;5.066;2023-04-25T12:24:52;101522.91;;;14.48;65.20
65760;BME280;52496;51.082;5.066;2023-04-25T12:27:25;101535.16;;;14.29;57.61
65760;BME280;52496;51.082;5.066;2023-04-25T12:29:57;101533.94;;;14.10;57.14
65760;BME280;52496;51.082;5.066;2023-04-25T12:32:28;101538.97;;;13.98;56.41
65760;BME280;52496;51.082;5.066;2023-04-25T12:34:58;101539.69;;;13.70;58.69
65760;BME280;52496;51.082;5.066;2023-04-25T12:37:29;101528.88;;;13.34;63.71
65760;BME280;52496;51.082;5.066;2023-04-25T12:40:00;101552.53;;;13.01;59.63
65760;BME280;52496;51.082;5.066;2023-04-25T12:42:31;101550.91;;;12.77;59.32
65760;BME280;52496;51.082;5.066;2023-04-25T12:45:01;101551.19;;;12.67;56.75
65760;BME280;52496;51.082;5.066;2023-04-25T12:47:32;101553.91;;;12.59;57.84
65760;BME280;52496;51.082;5.066;2023-04-25T12:50:05;101553.56;;;12.62;57.61
65760;BME280;52496;51.082;5.066;2023-04-25T12:52:36;101541.63;;;13.17;60.24
65760;BME280;52496;51.082;5.066;2023-04-25T12:55:06;101540.25;;;13.51;53.71
65760;BME280;52496;51.082;5.066;2023-04-25T12:57:37;101541.94;;;13.67;56.51
65760;BME280;52496;51.082;5.066;2023-04-25T13:00:07;101542.75;;;13.67;52.10
65760;BME280;52496;51.082;5.066;2023-04-25T13:02:40;101546.50;;;13.51;53.26
65760;BME280;52496;51.082;5.066;2023-04-25T13:05:11;101536.28;;;13.32;53.52
65760;BME280;52496;51.082;5.066;2023-04-25T13:07:41;101548.59;;;13.12;56.37
65760;BME280;52496;51.082;5.066;2023-04-25T13:10:12;101548.84;;;13.02;50.92
65760;BME280;52496;51.082;5.066;2023-04-25T13:12:42;101548.72;;;12.95;55.24
65760;BME280;52496;51.082;5.066;2023-04-25T13:15:13;101551.50;;;13.40;49.52
65760;BME280;52496;51.082;5.066;2023-04-25T13:17:45;101553.97;;;14.07;50.32
65760;BME280;52496;51.082;5.066;2023-04-25T13:20:16;101554.38;;;14.47;47.18